Time;durP1;ratioP1;P1;durP2;ratioP2;P2;SDS_P1;SDS_P2;PMS_P1;PMS_P2;Temp;Humidity;BMP_temperature;BMP_pressure;BME280_temperature;BME280_humidity;BME280_pressure;Samples;Min_cycle;Max_cycle;Signal;HPM_P1;HPM_P2
2023/06/30 00:00:21;;;;;;;;;;;;;;;22.41;51.30;99604.78;5090076;28;20379;-41
2023/06/30 00:02:47;;;;;;;;;;;;;;;22.45;51.39;99608.53;5090519;28;19924;-41
2023/06/30 00:05:15;;;;;;;;;;;;;;;22.10;52.40;99609.59;5090168;28;20256;-41
2023/06/30 00:07:42;;;;;;;;;;;;;;;21.92;53.26;99611.09;5089993;28;20030;-41
2023/06/30 00:10:07;;;;;;;;;;;;;;;21.86;53.27;99609.53;5090363;28;20012;-41
2023/06/30 00:12:33;;;;;;;;;;;;;;;22.09;52.81;99616.13;5090225;28;19995;-41
2023/06/30 00:14:59;;;;;;;;;;;;;;;22.32;52.21;99613.81;5089921;28;20361;-41
2023/06/30 00:17:24;;;;;;;;;;;;;;;22.43;52.62;99607.22;5090174;28;19912;-41
2023/06/30 00:19:50;;;;;;;;;;;;;;;22.47;52.07;99602.03;5090002;28;19955;-40
2023/06/30 00:22:19;;;;;;;;;;;;;;;22.80;51.22;99601.13;5089808;28;19916;-41
2023/06/30 00:24:45;;;;;;;;;;;;;;;22.86;50.71;99601.06;5089997;28;19912;-41
2023/06/30 00:27:10;;;;;;;;;;;;;;;22.83;50.65;99605.19;5089838;28;20048;-41
2023/06/30 00:29:35;;;;;;;;;;;;;;;22.87;50.67;99605.41;5090276;28;20011;-41
2023/06/30 00:32:01;;;;;;;;;;;;;;;22.56;51.26;99605.72;5090440;28;19923;-41
2023/06/30 00:34:26;;;;;;;;;;;;;;;22.73;50.89;99603.38;5090446;28;19916;-41
2023/06/30 00:36:51;;;;;;;;;;;;;;;22.30;51.67;99605.16;5090470;28;20333;-42
2023/06/30 00:39:17;;;;;;;;;;;;;;;22.41;51.42;99599.34;5094089;28;19916;-41
2023/06/30 00:41:42;;;;;;;;;;;;;;;22.40;53.14;99603.16;5094168;28;19923;-41
2023/06/30 00:44:07;;;;;;;;;;;;;;;22.03;52.75;99609.94;5093988;28;20370;-41
2023/06/30 00:46:33;;;;;;;;;;;;;;;22.17;52.27;99612.00;5094019;28;19970;-41
2023/06/30 00:48:58;;;;;;;;;;;;;;;22.23;52.27;99605.44;5094374;28;19916;-41
2023/06/30 00:51:23;;;;;;;;;;;;;;;22.43;51.91;99610.72;5093666;28;19912;-41
2023/06/30 00:53:48;;;;;;;;;;;;;;;22.61;51.03;99611.91;5093921;28;19912;-41
2023/06/30 00:56:14;;;;;;;;;;;;;;;22.67;50.95;99609.13;5093962;28;19912;-41
2023/06/30 00:58:39;;;;;;;;;;;;;;;22.67;51.32;99604.50;5093632;28;19960;-41
2023/06/30 01:01:19;;;;;;;;;;;;;;;22.51;51.61;99613.91;5093666;28;19962;-41
2023/06/30 01:03:49;;;;;;;;;;;;;;;21.38;54.44;99612.75;5093799;28;19923;-41
2023/06/30 01:06:37;;;;;;;;;;;;;;;20.92;56.74;99607.50;5093614;28;19912;-41
2023/06/30 01:09:12;;;;;;;;;;;;;;;20.47;57.48;99603.81;5082453;28;20168;-41
2023/06/30 01:11:39;;;;;;;;;;;;;;;20.57;57.53;99598.38;5093867;28;19918;-41
2023/06/30 01:14:06;;;;;;;;;;;;;;;20.30;58.40;99604.88;5093879;28;20481;-41
2023/06/30 01:16:33;;;;;;;;;;;;;;;20.32;58.52;99601.91;5093918;28;20000;-41
2023/06/30 01:18:59;;;;;;;;;;;;;;;20.50;57.95;99601.38;5093467;28;19920;-41
2023/06/30 01:21:28;;;;;;;;;;;;;;;20.65;57.41;99600.53;5093485;28;19918;-40
2023/06/30 01:23:55;;;;;;;;;;;;;;;20.66;57.57;99610.28;5093133;28;19999;-41
2023/06/30 01:26:21;;;;;;;;;;;;;;;20.52;58.31;99606.47;5093231;28;19912;-41
2023/06/30 01:28:47;;;;;;;;;;;;;;;20.51;57.95;99607.56;5093630;28;20345;-41
2023/06/30 01:31:13;;;;;;;;;;;;;;;20.50;58.12;99604.06;5093116;28;19951;-41
2023/06/30 01:33:39;;;;;;;;;;;;;;;20.26;58.85;99601.13;5092924;28;19930;-41
2023/06/30 01:36:05;;;;;;;;;;;;;;;20.35;58.68;99600.56;5093311;28;19969;-41
2023/06/30 01:38:31;;;;;;;;;;;;;;;20.25;58.98;99601.38;5093238;28;19973;-41
2023/06/30 01:40:56;;;;;;;;;;;;;;;20.37;58.75;99604.63;5093080;28;19912;-41
2023/06/30 01:43:22;;;;;;;;;;;;;;;20.20;59.22;99598.66;5092971;28;19922;-41
2023/06/30 01:45:49;;;;;;;;;;;;;;;20.15;59.82;99602.19;5092784;28;19912;-41
2023/06/30 01:48:14;;;;;;;;;;;;;;;20.09;59.29;99606.78;5092662;28;19919;-41
2023/06/30 01:50:40;;;;;;;;;;;;;;;20.14;59.63;99594.34;5093018;28;19912;-41
2023/06/30 01:53:05;;;;;;;;;;;;;;;20.23;59.12;99596.25;5093038;28;19939;-42
2023/06/30 01:55:31;;;;;;;;;;;;;;;20.11;59.11;99598.41;5092662;28;20292;-41
2023/06/30 01:57:57;;;;;;;;;;;;;;;20.05;59.17;99599.50;5092867;28;19934;-41
2023/06/30 02:00:22;;;;;;;;;;;;;;;20.14;59.45;99597.06;5093202;28;20396;-40
2023/06/30 02:02:47;;;;;;;;;;;;;;;20.01;59.97;99598.41;5092572;28;20016;-41
2023/06/30 02:05:13;;;;;;;;;;;;;;;19.99;59.59;99605.97;5092794;28;19916;-41
2023/06/30 02:07:38;;;;;;;;;;;;;;;20.07;59.53;99613.53;5092817;28;19912;-40
2023/06/30 02:10:03;;;;;;;;;;;;;;;20.77;57.23;99597.56;5092302;28;19956;-41
2023/06/30 02:12:29;;;;;;;;;;;;;;;21.24;55.98;99612.53;5092561;28;19920;-41
2023/06/30 02:14:54;;;;;;;;;;;;;;;21.42;55.50;99600.28;5092437;28;20332;-41
2023/06/30 02:17:26;;;;;;;;;;;;;;;21.57;54.43;99604.00;5092519;28;19914;-41
2023/06/30 02:19:52;;;;;;;;;;;;;;;21.72;53.76;99600.41;5092060;28;19912;-41
2023/06/30 02:22:17;;;;;;;;;;;;;;;21.67;54.21;99593.13;5091863;28;19922;-40
2023/06/30 02:24:42;;;;;;;;;;;;;;;21.42;54.62;99596.78;5091541;28;19916;-41
2023/06/30 02:27:08;;;;;;;;;;;;;;;20.89;56.12;99603.47;5091868;28;20342;-40
2023/06/30 02:29:34;;;;;;;;;;;;;;;21.03;55.92;99602.88;5091859;28;19970;-40
2023/06/30 02:31:59;;;;;;;;;;;;;;;21.20;55.28;99605.25;5091359;28;19962;-41
2023/06/30 02:34:24;;;;;;;;;;;;;;;21.15;55.12;99597.16;5091341;28;19981;-41
2023/06/30 02:36:50;;;;;;;;;;;;;;;21.22;55.29;99601.19;5091596;28;19912;-40
2023/06/30 02:39:15;;;;;;;;;;;;;;;21.39;54.55;99608.94;5091628;28;19919;-40
2023/06/30 02:41:40;;;;;;;;;;;;;;;21.58;53.72;99611.06;5091653;28;20020;-41
2023/06/30 02:44:05;;;;;;;;;;;;;;;21.18;54.88;99615.56;5091804;28;19916;-41
2023/06/30 02:46:31;;;;;;;;;;;;;;;21.19;54.97;99614.44;5091627;28;19915;-41
2023/06/30 02:48:56;;;;;;;;;;;;;;;21.19;54.82;99617.16;5091610;28;20006;-40
2023/06/30 02:51:21;;;;;;;;;;;;;;;21.18;55.07;99615.56;5091908;28;19916;-41
2023/06/30 02:53:47;;;;;;;;;;;;;;;21.25;54.88;99624.19;5090590;28;19966;-41
2023/06/30 02:56:12;;;;;;;;;;;;;;;21.24;54.91;99619.84;5091317;28;19952;-41
2023/06/30 02:58:39;;;;;;;;;;;;;;;20.53;57.12;99621.63;5091100;28;19919;-41
2023/06/30 03:01:05;;;;;;;;;;;;;;;20.77;56.65;99618.38;5090579;28;19947;-41
2023/06/30 03:03:31;;;;;;;;;;;;;;;20.50;56.80;99628.41;5091314;28;19960;-41
2023/06/30 03:05:56;;;;;;;;;;;;;;;20.91;55.85;99624.03;5091477;28;19947;-41
2023/06/30 03:08:21;;;;;;;;;;;;;;;20.87;55.40;99624.56;5091089;28;19973;-40
2023/06/30 03:10:48;;;;;;;;;;;;;;;20.53;56.81;99624.34;5091142;28;19923;-40
2023/06/30 03:13:14;;;;;;;;;;;;;;;20.85;56.26;99626.75;5090989;28;20464;-41
2023/06/30 03:15:39;;;;;;;;;;;;;;;20.99;56.04;99615.34;5090790;28;19920;-40
2023/06/30 03:18:04;;;;;;;;;;;;;;;20.99;55.72;99615.34;5090547;28;19923;-40
2023/06/30 03:20:30;;;;;;;;;;;;;;;21.23;55.09;99618.25;5090826;28;20323;-41
2023/06/30 03:22:55;;;;;;;;;;;;;;;21.20;55.16;99613.38;5090911;28;19920;-41
2023/06/30 03:25:21;;;;;;;;;;;;;;;21.37;54.82;99615.75;5091054;28;20075;-40
2023/06/30 03:27:46;;;;;;;;;;;;;;;21.38;54.62;99596.53;5090871;28;19916;-40
2023/06/30 03:30:12;;;;;;;;;;;;;;;21.55;54.39;99622.44;5091256;28;19912;-41
2023/06/30 03:32:37;;;;;;;;;;;;;;;21.61;54.39;99616.72;5090410;28;20386;-40
2023/06/30 03:35:03;;;;;;;;;;;;;;;21.19;55.14;99623.41;5091065;28;19973;-40
2023/06/30 03:37:29;;;;;;;;;;;;;;;21.19;55.19;99619.84;5091431;28;20058;-41
2023/06/30 03:39:55;;;;;;;;;;;;;;;21.40;54.62;99613.28;5090949;28;19918;-41
2023/06/30 03:42:20;;;;;;;;;;;;;;;21.44;54.69;99621.69;5090896;28;19935;-41
2023/06/30 03:44:45;;;;;;;;;;;;;;;21.62;54.27;99618.31;5090970;28;19919;-41
2023/06/30 03:47:10;;;;;;;;;;;;;;;21.65;54.48;99616.97;5090766;28;19923;-40
2023/06/30 03:49:36;;;;;;;;;;;;;;;21.95;53.00;99624.09;5091107;28;20309;-40
2023/06/30 03:52:01;;;;;;;;;;;;;;;22.49;52.18;99622.31;5090662;28;19923;-41
2023/06/30 03:54:26;;;;;;;;;;;;;;;22.75;51.56;99611.22;5090733;28;19941;-41
2023/06/30 03:56:51;;;;;;;;;;;;;;;23.29;50.52;99620.94;5090678;28;19919;-41
2023/06/30 03:59:17;;;;;;;;;;;;;;;23.71;49.15;99616.56;5090838;28;19912;-40
2023/06/30 04:01:42;;;;;;;;;;;;;;;24.14;47.79;99621.09;5090301;28;19959;-45
2023/06/30 04:04:07;;;;;;;;;;;;;;;24.53;46.97;99618.03;5090025;28;19922;-47
2023/06/30 04:06:33;;;;;;;;;;;;;;;24.71;46.09;99618.25;5090140;28;19920;-46
2023/06/30 04:09:01;;;;;;;;;;;;;;;25.00;45.52;99603.56;5090279;28;19912;-47
2023/06/30 04:11:27;;;;;;;;;;;;;;;25.51;45.57;99608.78;5090603;28;19923;-46
2023/06/30 04:13:52;;;;;;;;;;;;;;;25.88;43.65;99608.78;5094029;28;19912;-40
2023/06/30 04:16:17;;;;;;;;;;;;;;;25.34;43.89;99606.69;5093884;28;19916;-42
2023/06/30 04:18:43;;;;;;;;;;;;;;;24.45;45.58;99612.47;5093793;28;19916;-41
2023/06/30 04:21:08;;;;;;;;;;;;;;;24.18;47.32;99616.72;5094055;28;19912;-41
2023/06/30 04:23:33;;;;;;;;;;;;;;;24.17;48.08;99621.31;5093809;28;19927;-41
2023/06/30 04:26:00;;;;;;;;;;;;;;;24.00;47.46;99619.16;5093867;28;19983;-41
2023/06/30 04:28:26;;;;;;;;;;;;;;;24.29;46.75;99623.56;5093657;28;19950;-39
2023/06/30 04:30:51;;;;;;;;;;;;;;;24.47;46.28;99621.94;5094494;28;20298;-41
2023/06/30 04:33:16;;;;;;;;;;;;;;;24.59;45.89;99625.00;5106025;28;19924;-41
2023/06/30 04:35:43;;;;;;;;;;;;;;;24.72;46.21;99630.75;5101127;28;19956;-41
2023/06/30 04:38:09;;;;;;;;;;;;;;;24.86;45.31;99625.31;5109776;28;19938;-41
2023/06/30 04:40:34;;;;;;;;;;;;;;;25.10;44.83;99627.88;5113842;28;19923;-42
2023/06/30 04:43:00;;;;;;;;;;;;;;;25.29;43.68;99625.06;5113859;28;19916;-41
2023/06/30 04:45:25;;;;;;;;;;;;;;;25.40;43.53;99617.47;5113834;28;19919;-42
2023/06/30 04:47:50;;;;;;;;;;;;;;;25.53;43.11;99620.19;5112745;28;19912;-43
2023/06/30 04:50:16;;;;;;;;;;;;;;;25.68;43.51;99623.66;5112516;28;20468;-42
2023/06/30 04:52:41;;;;;;;;;;;;;;;25.94;42.40;99626.63;5104809;28;20007;-44
2023/06/30 04:55:07;;;;;;;;;;;;;;;25.91;42.61;99625.34;5094370;28;19917;-41
2023/06/30 04:57:32;;;;;;;;;;;;;;;26.31;41.70;99630.09;5094110;28;19920;-42
2023/06/30 04:59:57;;;;;;;;;;;;;;;26.63;40.94;99628.22;5092162;28;19912;-42
2023/06/30 05:02:23;;;;;;;;;;;;;;;26.90;40.41;99630.78;5092793;28;19924;-42
2023/06/30 05:04:49;;;;;;;;;;;;;;;27.30;39.46;99624.47;5092962;28;19912;-41
2023/06/30 05:07:14;;;;;;;;;;;;;;;27.34;39.52;99625.47;5092866;28;19915;-41
2023/06/30 05:09:39;;;;;;;;;;;;;;;28.41;38.02;99626.75;5092913;28;19916;-42
2023/06/30 05:12:05;;;;;;;;;;;;;;;28.02;38.62;99619.56;5092952;28;19912;-41
2023/06/30 05:14:30;;;;;;;;;;;;;;;27.93;38.60;99618.78;5093030;28;19923;-43
2023/06/30 05:16:55;;;;;;;;;;;;;;;27.45;39.35;99621.28;5091065;28;19912;-42
2023/06/30 05:19:21;;;;;;;;;;;;;;;27.81;38.76;99614.72;5092399;28;20006;-42
2023/06/30 05:21:46;;;;;;;;;;;;;;;28.19;38.18;99618.75;5092761;28;20029;-43
2023/06/30 05:24:11;;;;;;;;;;;;;;;28.56;37.24;99627.38;5091856;28;20380;-42
2023/06/30 05:26:37;;;;;;;;;;;;;;;28.78;36.81;99629.88;5093090;28;19919;-42
2023/06/30 05:29:02;;;;;;;;;;;;;;;29.27;36.49;99623.25;5092524;28;20359;-42
2023/06/30 05:31:27;;;;;;;;;;;;;;;29.34;35.68;99618.03;5092392;28;20501;-42
2023/06/30 05:33:53;;;;;;;;;;;;;;;29.41;35.69;99621.84;5092399;28;19924;-42
2023/06/30 05:36:19;;;;;;;;;;;;;;;29.53;34.97;99629.38;5091821;28;20341;-42
2023/06/30 05:38:44;;;;;;;;;;;;;;;30.33;34.61;99628.41;5092570;28;19912;-43
2023/06/30 05:41:10;;;;;;;;;;;;;;;30.68;33.92;99628.00;5092273;28;19998;-43
2023/06/30 05:43:35;;;;;;;;;;;;;;;30.46;33.93;99625.69;5092177;28;19953;-42
2023/06/30 05:46:00;;;;;;;;;;;;;;;30.47;34.13;99627.28;5092288;28;19916;-42
2023/06/30 05:48:26;;;;;;;;;;;;;;;30.72;32.89;99628.91;5087901;28;19923;-41
2023/06/30 05:50:51;;;;;;;;;;;;;;;30.88;32.92;99631.00;5090541;28;20002;-41
2023/06/30 05:53:16;;;;;;;;;;;;;;;30.91;33.10;99630.34;5091403;28;19928;-42
2023/06/30 05:55:42;;;;;;;;;;;;;;;30.66;32.92;99630.28;5091858;28;20199;-43
2023/06/30 05:58:07;;;;;;;;;;;;;;;30.99;32.73;99626.69;5092068;28;20309;-43
2023/06/30 06:00:32;;;;;;;;;;;;;;;31.41;32.36;99623.66;5091259;28;19939;-44
2023/06/30 06:02:57;;;;;;;;;;;;;;;31.25;32.76;99629.06;5090526;28;19916;-43
2023/06/30 06:05:23;;;;;;;;;;;;;;;31.27;32.43;99626.78;5091636;28;19977;-42
2023/06/30 06:07:48;;;;;;;;;;;;;;;31.29;32.04;99634.69;5090172;28;20334;-42
2023/06/30 06:10:14;;;;;;;;;;;;;;;31.30;31.94;99631.59;5089839;28;20317;-43
2023/06/30 06:12:39;;;;;;;;;;;;;;;31.26;31.87;99629.88;5088771;28;19912;-41
2023/06/30 06:15:05;;;;;;;;;;;;;;;31.63;31.66;99635.34;5088922;28;20488;-42
2023/06/30 06:17:31;;;;;;;;;;;;;;;31.84;31.93;99629.66;5090284;28;19984;-44
2023/06/30 06:19:57;;;;;;;;;;;;;;;31.75;31.58;99624.31;5091462;28;19919;-42
2023/06/30 06:22:22;;;;;;;;;;;;;;;31.86;31.52;99617.16;5091140;28;19916;-42
2023/06/30 06:24:47;;;;;;;;;;;;;;;31.92;31.62;99623.22;5091490;28;19927;-41
2023/06/30 06:27:13;;;;;;;;;;;;;;;32.07;31.15;99621.69;5091380;28;19912;-42
2023/06/30 06:29:38;;;;;;;;;;;;;;;31.73;31.10;99623.84;5091807;28;19912;-42
2023/06/30 06:32:04;;;;;;;;;;;;;;;31.97;30.80;99620.22;5091541;28;19931;-42
2023/06/30 06:34:29;;;;;;;;;;;;;;;31.59;30.91;99616.00;5090350;28;19918;-43
2023/06/30 06:36:54;;;;;;;;;;;;;;;32.01;31.53;99620.31;5089022;28;19969;-41
2023/06/30 06:39:20;;;;;;;;;;;;;;;32.50;29.58;99620.88;5089769;28;19951;-42
2023/06/30 06:41:46;;;;;;;;;;;;;;;32.32;29.96;99614.09;5089969;28;19912;-42
2023/06/30 06:44:11;;;;;;;;;;;;;;;32.32;29.17;99611.34;5090012;28;20027;-42
2023/06/30 06:46:36;;;;;;;;;;;;;;;32.51;29.42;99613.41;5090231;28;19912;-41
2023/06/30 06:49:02;;;;;;;;;;;;;;;32.62;29.28;99611.75;5091195;28;20368;-41
2023/06/30 06:51:27;;;;;;;;;;;;;;;32.47;29.32;99615.28;5091439;28;19968;-42
2023/06/30 06:53:53;;;;;;;;;;;;;;;32.64;29.52;99619.69;5090877;28;19925;-41
2023/06/30 06:56:19;;;;;;;;;;;;;;;33.92;27.28;99607.22;5091418;28;20275;-42
2023/06/30 06:58:45;;;;;;;;;;;;;;;34.89;25.93;99608.97;5091001;28;19924;-41
2023/06/30 07:01:11;;;;;;;;;;;;;;;35.03;26.40;99609.19;5083682;28;19974;-42
2023/06/30 07:03:37;;;;;;;;;;;;;;;34.60;26.11;99615.97;5088970;28;19926;-41
2023/06/30 07:06:02;;;;;;;;;;;;;;;34.99;25.53;99605.56;5089893;28;19912;-40
2023/06/30 07:08:28;;;;;;;;;;;;;;;35.17;25.53;99608.63;5091494;28;20006;-42
2023/06/30 07:10:54;;;;;;;;;;;;;;;36.24;24.93;99596.53;5090785;28;20004;-42
2023/06/30 07:13:20;;;;;;;;;;;;;;;36.20;24.69;99611.13;5088055;28;19943;-42
2023/06/30 07:15:47;;;;;;;;;;;;;;;36.11;24.73;99607.03;5088263;28;19912;-42
2023/06/30 07:18:13;;;;;;;;;;;;;;;36.59;24.48;99610.72;5088024;28;20431;-43
2023/06/30 07:20:38;;;;;;;;;;;;;;;36.85;23.44;99608.94;5086502;28;19912;-43
2023/06/30 07:23:03;;;;;;;;;;;;;;;37.03;22.90;99609.06;5086268;28;19923;-42
2023/06/30 07:25:28;;;;;;;;;;;;;;;36.84;23.01;99607.34;5087661;28;19935;-41
2023/06/30 07:27:55;;;;;;;;;;;;;;;36.77;23.28;99610.88;5087375;28;19931;-43
2023/06/30 07:30:21;;;;;;;;;;;;;;;37.05;22.88;99603.94;5087854;28;19918;-43
2023/06/30 07:32:47;;;;;;;;;;;;;;;36.42;23.15;99599.47;5088141;28;20391;-43
2023/06/30 07:35:12;;;;;;;;;;;;;;;36.84;22.34;99599.03;5089435;28;19961;-43
2023/06/30 07:37:38;;;;;;;;;;;;;;;37.12;22.36;99605.97;5090384;28;19968;-43
2023/06/30 07:40:03;;;;;;;;;;;;;;;36.95;23.38;99596.34;5091176;28;20336;-40
2023/06/30 07:42:29;;;;;;;;;;;;;;;35.96;23.49;99600.56;5091065;28;19916;-43
2023/06/30 07:44:54;;;;;;;;;;;;;;;36.00;23.60;99599.44;5090599;28;19920;-42
2023/06/30 07:47:19;;;;;;;;;;;;;;;36.27;23.71;99593.81;5094274;28;19919;-45
2023/06/30 07:49:44;;;;;;;;;;;;;;;35.82;24.24;99602.00;5097698;28;20314;-42
2023/06/30 07:52:10;;;;;;;;;;;;;;;35.80;24.44;99603.56;5096867;28;20399;-42
2023/06/30 07:54:35;;;;;;;;;;;;;;;36.89;23.21;99597.88;5097477;28;19972;-36
2023/06/30 07:57:01;;;;;;;;;;;;;;;36.25;23.75;99587.03;5097260;28;19919;-36
2023/06/30 07:59:26;;;;;;;;;;;;;;;36.90;22.95;99591.97;5097251;28;19938;-36
2023/06/30 08:01:51;;;;;;;;;;;;;;;36.42;23.20;99588.38;5097384;28;19919;-35
2023/06/30 08:04:18;;;;;;;;;;;;;;;36.67;22.96;99594.16;5097643;28;20376;-35
2023/06/30 08:06:43;;;;;;;;;;;;;;;36.98;23.01;99587.25;5097055;28;19949;-36
2023/06/30 08:09:09;;;;;;;;;;;;;;;37.32;22.85;99584.31;5095734;28;20378;-36
2023/06/30 08:11:34;;;;;;;;;;;;;;;38.20;22.03;99587.81;5097009;28;19923;-36
2023/06/30 08:14:01;;;;;;;;;;;;;;;38.61;20.94;99586.66;5096158;28;19958;-36
2023/06/30 08:16:27;;;;;;;;;;;;;;;38.38;20.76;99582.25;5097599;28;19960;-36
2023/06/30 08:18:53;;;;;;;;;;;;;;;38.53;21.16;99580.28;5097432;28;19995;-38
2023/06/30 08:21:18;;;;;;;;;;;;;;;38.43;21.25;99579.09;5097092;28;20403;-37
2023/06/30 08:23:43;;;;;;;;;;;;;;;38.86;20.95;99567.19;5097283;28;19927;-36
2023/06/30 08:26:08;;;;;;;;;;;;;;;39.02;19.97;99572.34;5097285;28;19919;-34
2023/06/30 08:28:34;;;;;;;;;;;;;;;38.34;19.87;99557.25;5097024;28;19973;-36
2023/06/30 08:30:59;;;;;;;;;;;;;;;37.24;21.25;99569.59;5097216;28;19993;-37
2023/06/30 08:33:25;;;;;;;;;;;;;;;36.87;21.79;99569.75;5097218;28;19927;-36
2023/06/30 08:35:50;;;;;;;;;;;;;;;37.09;21.31;99563.16;5097377;28;20377;-37
2023/06/30 08:38:16;;;;;;;;;;;;;;;36.98;21.56;99565.88;5097228;28;19961;-35
2023/06/30 08:40:41;;;;;;;;;;;;;;;38.17;20.74;99560.03;5096969;28;20007;-38
2023/06/30 08:43:10;;;;;;;;;;;;;;;38.92;20.39;99549.69;5096613;28;20061;-37
2023/06/30 08:45:36;;;;;;;;;;;;;;;38.44;20.05;99544.59;5097213;28;19912;-37
2023/06/30 08:48:05;;;;;;;;;;;;;;;38.98;20.29;99552.06;5096940;28;19934;-36
2023/06/30 08:50:34;;;;;;;;;;;;;;;37.99;19.64;99554.44;5097040;28;19912;-36
2023/06/30 08:53:00;;;;;;;;;;;;;;;37.03;20.33;99544.50;5096734;28;20368;-37
2023/06/30 08:55:25;;;;;;;;;;;;;;;37.55;19.41;99545.19;5097313;28;19919;-36
2023/06/30 08:57:53;;;;;;;;;;;;;;;36.67;19.80;99544.28;5095928;28;19919;-36
2023/06/30 09:00:19;;;;;;;;;;;;;;;34.80;21.86;99531.06;5093286;28;19912;-35
2023/06/30 09:02:45;;;;;;;;;;;;;;;35.04;22.12;99529.81;5093600;28;19923;-38
2023/06/30 09:05:10;;;;;;;;;;;;;;;35.67;22.00;99536.56;5093526;28;19912;-37
2023/06/30 09:07:44;;;;;;;;;;;;;;;36.76;21.46;99544.72;5093694;28;19990;-35
2023/06/30 09:10:09;;;;;;;;;;;;;;;36.11;21.36;99535.06;5093483;28;19912;-37
2023/06/30 09:12:36;;;;;;;;;;;;;;;36.12;20.86;99528.31;5093622;28;20229;-37
2023/06/30 09:15:01;;;;;;;;;;;;;;;36.76;20.59;99528.09;5093509;28;19924;-36
2023/06/30 09:17:27;;;;;;;;;;;;;;;37.41;20.00;99526.47;5093242;28;19912;-35
2023/06/30 09:19:53;;;;;;;;;;;;;;;37.37;20.50;99528.44;5093294;28;19912;-36
2023/06/30 09:22:20;;;;;;;;;;;;;;;36.71;20.08;99523.72;5093149;28;19995;-37
2023/06/30 09:24:45;;;;;;;;;;;;;;;36.24;20.11;99519.78;5093168;28;19912;-37
2023/06/30 09:27:10;;;;;;;;;;;;;;;36.79;20.64;99514.28;5093048;28;19908;-36
2023/06/30 09:29:36;;;;;;;;;;;;;;;37.72;18.56;99513.16;5093164;28;19943;-36
2023/06/30 09:32:02;;;;;;;;;;;;;;;37.64;18.20;99505.97;5092669;28;19920;-36
2023/06/30 09:34:27;;;;;;;;;;;;;;;37.40;19.47;99508.25;5093399;28;19923;-36
2023/06/30 09:36:54;;;;;;;;;;;;;;;36.64;20.75;99503.47;5092459;28;19912;-37
2023/06/30 09:39:19;;;;;;;;;;;;;;;36.53;20.96;99506.16;5092385;28;19912;-36
2023/06/30 09:41:46;;;;;;;;;;;;;;;37.21;19.69;99489.97;5092928;28;19919;-36
2023/06/30 09:44:12;;;;;;;;;;;;;;;34.89;20.99;99489.34;5092793;28;19916;-36
2023/06/30 09:46:46;;;;;;;;;;;;;;;34.28;22.23;99484.47;5093073;28;19919;-35
2023/06/30 09:49:21;;;;;;;;;;;;;;;34.31;22.00;99482.94;5092834;28;19916;-37
2023/06/30 09:51:47;;;;;;;;;;;;;;;34.04;21.45;99479.28;5092869;28;20276;-37
2023/06/30 09:54:12;;;;;;;;;;;;;;;34.07;23.13;99482.13;5092868;28;19912;-37
2023/06/30 09:56:39;;;;;;;;;;;;;;;33.20;23.05;99478.88;5092746;28;20030;-34
2023/06/30 09:59:05;;;;;;;;;;;;;;;33.75;22.44;99476.03;5092533;28;19912;-36
2023/06/30 10:01:31;;;;;;;;;;;;;;;33.88;22.82;99471.94;5092636;28;19934;-36
2023/06/30 10:03:56;;;;;;;;;;;;;;;34.08;22.13;99474.63;5092253;28;19993;-36
2023/06/30 10:06:22;;;;;;;;;;;;;;;33.77;22.13;99445.31;5092508;28;19960;-36
2023/06/30 10:08:49;;;;;;;;;;;;;;;34.16;23.56;99470.06;5092328;28;19916;-36
2023/06/30 10:11:14;;;;;;;;;;;;;;;34.41;22.20;99462.97;5091813;28;19916;-35
2023/06/30 10:13:41;;;;;;;;;;;;;;;35.46;21.75;99462.44;5091914;28;19999;-36
2023/06/30 10:16:07;;;;;;;;;;;;;;;35.43;21.76;99460.41;5092436;28;20037;-36
2023/06/30 10:18:34;;;;;;;;;;;;;;;35.35;21.94;99451.22;5091972;28;19929;-36
2023/06/30 10:21:00;;;;;;;;;;;;;;;35.32;21.73;99445.66;5091954;28;19962;-35
2023/06/30 10:23:27;;;;;;;;;;;;;;;36.26;20.35;99453.72;5092047;28;19963;-36
2023/06/30 10:25:54;;;;;;;;;;;;;;;37.30;19.16;99448.78;5092014;28;19999;-36
2023/06/30 10:28:20;;;;;;;;;;;;;;;37.41;19.22;99451.56;5090146;28;20022;-37
2023/06/30 10:30:46;;;;;;;;;;;;;;;37.56;18.74;99433.75;5091579;28;19998;-37
2023/06/30 10:33:11;;;;;;;;;;;;;;;37.95;18.42;99435.03;5091420;28;19936;-35
2023/06/30 10:35:37;;;;;;;;;;;;;;;38.33;18.10;99430.66;5091632;28;19912;-35
2023/06/30 10:38:03;;;;;;;;;;;;;;;38.14;18.52;99429.09;5091465;28;19916;-35
2023/06/30 10:40:29;;;;;;;;;;;;;;;38.79;17.73;99422.63;5091626;28;19912;-36
2023/06/30 10:42:55;;;;;;;;;;;;;;;37.86;18.52;99423.53;5091622;28;19920;-37
2023/06/30 10:45:26;;;;;;;;;;;;;;;38.78;18.22;99415.47;5086624;28;20437;-43
2023/06/30 10:47:52;;;;;;;;;;;;;;;36.75;18.66;99419.22;5087909;28;19916;-42
2023/06/30 10:50:17;;;;;;;;;;;;;;;35.26;20.15;99412.00;5089438;28;19912;-44
2023/06/30 10:52:50;;;;;;;;;;;;;;;34.26;20.54;99420.53;5091087;28;19923;-36
2023/06/30 10:55:18;;;;;;;;;;;;;;;35.11;19.86;99407.47;5090719;28;19912;-36
2023/06/30 10:57:48;;;;;;;;;;;;;;;35.33;20.00;99398.28;5089413;28;19922;-36
2023/06/30 11:00:14;;;;;;;;;;;;;;;35.77;20.31;99405.03;5091310;28;19912;-36
2023/06/30 11:02:49;;;;;;;;;;;;;;;36.09;20.43;99402.53;5090793;28;19965;-36
2023/06/30 11:05:21;;;;;;;;;;;;;;;35.25;20.56;99396.63;5090683;28;19920;-36
2023/06/30 11:07:48;;;;;;;;;;;;;;;35.27;20.16;99394.25;5090746;28;20005;-35
2023/06/30 11:10:24;;;;;;;;;;;;;;;36.30;19.45;99395.59;5090187;28;20009;-35
2023/06/30 11:12:53;;;;;;;;;;;;;;;36.73;20.76;99384.78;5086431;28;19946;-37
2023/06/30 11:15:33;;;;;;;;;;;;;;;37.22;20.18;99379.81;5091029;28;19912;-36
2023/06/30 11:17:59;;;;;;;;;;;;;;;37.70;19.18;99383.09;5091121;28;20272;-36
2023/06/30 11:20:27;;;;;;;;;;;;;;;38.01;19.15;99369.56;5090859;28;19923;-37
2023/06/30 11:23:02;;;;;;;;;;;;;;;36.51;20.71;99375.53;5090247;28;19923;-37
2023/06/30 11:25:31;;;;;;;;;;;;;;;35.49;22.43;99370.41;5090842;28;20386;-37
2023/06/30 11:27:57;;;;;;;;;;;;;;;34.40;23.22;99366.69;5090932;28;19923;-35
2023/06/30 11:30:23;;;;;;;;;;;;;;;33.61;23.71;99370.94;5090691;28;20416;-37
2023/06/30 11:32:53;;;;;;;;;;;;;;;32.73;25.34;99359.41;5090775;28;20007;-35
2023/06/30 11:35:18;;;;;;;;;;;;;;;32.41;26.08;99346.91;5091040;28;19912;-36
2023/06/30 11:37:48;;;;;;;;;;;;;;;32.71;26.30;99361.75;5091011;28;20362;-36
2023/06/30 11:40:13;;;;;;;;;;;;;;;31.16;27.68;99364.59;5091081;28;19947;-36
2023/06/30 11:42:39;;;;;;;;;;;;;;;31.46;28.05;99358.72;5090745;28;19959;-36
2023/06/30 11:45:05;;;;;;;;;;;;;;;32.23;26.28;99346.50;5090833;28;19916;-35
2023/06/30 11:47:30;;;;;;;;;;;;;;;32.15;26.54;99353.78;5091034;28;20388;-35
2023/06/30 11:49:55;;;;;;;;;;;;;;;32.09;26.68;99344.22;5090928;28;19912;-36
2023/06/30 11:52:21;;;;;;;;;;;;;;;32.66;25.09;99348.25;5090866;28;19931;-35
2023/06/30 11:54:46;;;;;;;;;;;;;;;32.26;26.34;99346.56;5090557;28;20376;-36
2023/06/30 11:57:11;;;;;;;;;;;;;;;33.18;24.88;99343.38;5090431;28;19912;-34
2023/06/30 11:59:37;;;;;;;;;;;;;;;32.68;25.84;99334.91;5090453;28;19912;-35
2023/06/30 12:02:03;;;;;;;;;;;;;;;33.06;24.69;99340.78;5090762;28;20036;-36
2023/06/30 12:04:33;;;;;;;;;;;;;;;33.36;24.79;99332.69;5090672;28;19916;-35
2023/06/30 12:06:59;;;;;;;;;;;;;;;33.47;24.02;99319.88;5090530;28;20010;-36
2023/06/30 12:09:24;;;;;;;;;;;;;;;33.75;24.65;99318.78;5090346;28;20503;-36
2023/06/30 12:11:49;;;;;;;;;;;;;;;33.27;25.34;99312.84;5090631;28;20010;-36
2023/06/30 12:14:16;;;;;;;;;;;;;;;33.33;24.80;99318.84;5090686;28;19912;-36
2023/06/30 12:16:45;;;;;;;;;;;;;;;34.36;23.64;99305.09;5090539;28;20422;-34
2023/06/30 12:19:10;;;;;;;;;;;;;;;34.68;24.12;99308.28;5089984;28;19916;-37
2023/06/30 12:21:49;;;;;;;;;;;;;;;35.00;23.49;99307.88;5090797;28;19912;-36
2023/06/30 12:24:18;;;;;;;;;;;;;;;35.05;23.29;99302.78;5089198;28;20096;-36
2023/06/30 12:26:44;;;;;;;;;;;;;;;34.30;24.14;99304.63;5086877;28;20007;-37
2023/06/30 12:29:09;;;;;;;;;;;;;;;32.73;26.57;99306.28;5087944;28;19916;-35
2023/06/30 12:31:34;;;;;;;;;;;;;;;32.74;26.42;99299.63;5085111;28;19939;-36
2023/06/30 12:34:00;;;;;;;;;;;;;;;32.41;26.75;99295.38;5086356;28;20383;-36
2023/06/30 12:36:28;;;;;;;;;;;;;;;32.51;26.33;99288.50;5085040;28;19912;-36
2023/06/30 12:38:57;;;;;;;;;;;;;;;33.31;25.57;99292.41;5094098;28;20392;-37
2023/06/30 12:41:22;;;;;;;;;;;;;;;33.66;25.13;99291.47;5093956;28;19916;-36